sensor_id;sensor_type;location;lat;lon;timestamp;pressure;altitude;pressure_sealevel;temperature;humidity
15193;BME280;7697;51.630;7.484;2024-02-21T00:04:24;-17415.66;;;10.21;100.00
15193;BME280;7697;51.630;7.484;2024-02-21T00:09:27;-17415.50;;;10.21;100.00
15193;BME280;7697;51.630;7.484;2024-02-21T00:14:29;-17416.19;;;10.23;100.00
15193;BME280;7697;51.630;7.484;2024-02-21T00:19:31;-17415.66;;;10.21;100.00
15193;BME280;7697;51.630;7.484;2024-02-21T00:24:35;-17415.84;;;10.22;100.00
15193;BME280;7697;51.630;7.484;2024-02-21T00:29:37;-17414.31;;;10.17;100.00
15193;BME280;7697;51.630;7.484;2024-02-21T00:34:39;-17415.00;;;10.19;100.00
15193;BME280;7697;51.630;7.484;2024-02-21T00:39:42;-17416.19;;;10.23;100.00
15193;BME280;7697;51.630;7.484;2024-02-21T00:44:43;-17415.84;;;10.22;100.00
15193;BME280;7697;51.630;7.484;2024-02-21T00:49:45;-17414.50;;;10.18;100.00
15193;BME280;7697;51.630;7.484;2024-02-21T00:54:48;-17416.84;;;10.25;100.00
15193;BME280;7697;51.630;7.484;2024-02-21T00:59:50;-17414.00;;;10.16;100.00
15193;BME280;7697;51.630;7.484;2024-02-21T01:04:52;-17416.19;;;10.23;100.00
15193;BME280;7697;51.630;7.484;2024-02-21T01:09:55;-17415.00;;;10.19;100.00
15193;BME280;7697;51.630;7.484;2024-02-21T01:14:57;-17415.19;;;10.20;100.00
15193;BME280;7697;51.630;7.484;2024-02-21T01:19:58;-17415.66;;;10.21;100.00
15193;BME280;7697;51.630;7.484;2024-02-21T01:25:02;-17412.97;;;10.13;100.00
15193;BME280;7697;51.630;7.484;2024-02-21T01:30:05;-17412.47;;;10.11;100.00
15193;BME280;7697;51.630;7.484;2024-02-21T01:35:08;-17411.66;;;10.09;100.00
15193;BME280;7697;51.630;7.484;2024-02-21T01:40:12;-17413.66;;;10.15;100.00
15193;BME280;7697;51.630;7.484;2024-02-21T01:45:14;-17413.66;;;10.15;100.00
15193;BME280;7697;51.630;7.484;2024-02-21T01:50:17;-17413.16;;;10.13;100.00
15193;BME280;7697;51.630;7.484;2024-02-21T01:55:21;-17414.00;;;10.16;100.00
15193;BME280;7697;51.630;7.484;2024-02-21T02:00:23;-17414.31;;;10.17;100.00
15193;BME280;7697;51.630;7.484;2024-02-21T02:05:26;-17413.31;;;10.14;100.00
15193;BME280;7697;51.630;7.484;2024-02-21T02:10:29;-17413.81;;;10.15;100.00
15193;BME280;7697;51.630;7.484;2024-02-21T02:15:37;-17415.66;;;10.21;100.00
15193;BME280;7697;51.630;7.484;2024-02-21T02:20:40;-17412.97;;;10.13;100.00
15193;BME280;7697;51.630;7.484;2024-02-21T02:25:43;-17412.97;;;10.13;100.00
15193;BME280;7697;51.630;7.484;2024-02-21T02:30:45;-17412.81;;;10.12;100.00
15193;BME280;7697;51.630;7.484;2024-02-21T02:35:47;-17413.31;;;10.14;100.00
15193;BME280;7697;51.630;7.484;2024-02-21T02:40:50;-17413.16;;;10.13;100.00
15193;BME280;7697;51.630;7.484;2024-02-21T02:45:52;-17411.97;;;10.10;100.00
15193;BME280;7697;51.630;7.484;2024-02-21T02:50:54;-17412.81;;;10.12;100.00
15193;BME280;7697;51.630;7.484;2024-02-21T02:55:57;-17412.66;;;10.12;100.00
15193;BME280;7697;51.630;7.484;2024-02-21T03:00:59;-17411.31;;;10.08;100.00
15193;BME280;7697;51.630;7.484;2024-02-21T03:06:00;-17411.31;;;10.08;100.00
15193;BME280;7697;51.630;7.484;2024-02-21T03:11:04;-17410.31;;;10.05;100.00
15193;BME280;7697;51.630;7.484;2024-02-21T03:16:06;-17408.63;;;10.00;100.00
15193;BME280;7697;51.630;7.484;2024-02-21T03:21:07;-17406.94;;;9.95;100.00
15193;BME280;7697;51.630;7.484;2024-02-21T03:26:10;-17405.94;;;9.92;100.00
15193;BME280;7697;51.630;7.484;2024-02-21T03:31:12;-17405.09;;;9.89;100.00
15193;BME280;7697;51.630;7.484;2024-02-21T03:36:14;-17404.59;;;9.88;100.00
15193;BME280;7697;51.630;7.484;2024-02-21T03:41:17;-17405.44;;;9.90;100.00
15193;BME280;7697;51.630;7.484;2024-02-21T03:46:19;-17406.28;;;9.93;100.00
15193;BME280;7697;51.630;7.484;2024-02-21T03:51:21;-17406.28;;;9.93;100.00
15193;BME280;7697;51.630;7.484;2024-02-21T03:56:24;-17405.78;;;9.91;100.00
15193;BME280;7697;51.630;7.484;2024-02-21T04:01:26;-17407.28;;;9.96;100.00
15193;BME280;7697;51.630;7.484;2024-02-21T04:06:27;-17407.28;;;9.96;100.00
15193;BME280;7697;51.630;7.484;2024-02-21T04:11:30;-17408.13;;;9.98;100.00
15193;BME280;7697;51.630;7.484;2024-02-21T04:16:34;-17409.13;;;10.01;100.00
15193;BME280;7697;51.630;7.484;2024-02-21T04:21:36;-17408.47;;;9.99;100.00
15193;BME280;7697;51.630;7.484;2024-02-21T04:26:39;-17409.28;;;10.02;100.00
15193;BME280;7697;51.630;7.484;2024-02-21T04:31:41;-17409.13;;;10.01;100.00
15193;BME280;7697;51.630;7.484;2024-02-21T04:36:43;-17407.94;;;9.98;100.00
15193;BME280;7697;51.630;7.484;2024-02-21T04:41:46;-17409.28;;;10.02;100.00
15193;BME280;7697;51.630;7.484;2024-02-21T04:46:48;-17409.28;;;10.02;100.00
15193;BME280;7697;51.630;7.484;2024-02-21T04:51:49;-17409.47;;;10.02;100.00
15193;BME280;7697;51.630;7.484;2024-02-21T04:56:52;-17409.63;;;10.03;100.00
15193;BME280;7697;51.630;7.484;2024-02-21T05:01:54;-17406.78;;;9.94;100.00
15193;BME280;7697;51.630;7.484;2024-02-21T05:06:56;-17405.94;;;9.92;100.00
15193;BME280;7697;51.630;7.484;2024-02-21T05:11:59;-17404.94;;;9.89;100.00
15193;BME280;7697;51.630;7.484;2024-02-21T05:17:01;-17405.94;;;9.92;100.00
15193;BME280;7697;51.630;7.484;2024-02-21T05:22:03;-17405.78;;;9.91;100.00
15193;BME280;7697;51.630;7.484;2024-02-21T05:27:06;-17405.59;;;9.91;100.00
15193;BME280;7697;51.630;7.484;2024-02-21T05:32:08;-17406.44;;;9.93;100.00
15193;BME280;7697;51.630;7.484;2024-02-21T05:37:09;-17405.59;;;9.91;100.00
15193;BME280;7697;51.630;7.484;2024-02-21T05:42:12;-17405.44;;;9.90;100.00
15193;BME280;7697;51.630;7.484;2024-02-21T05:47:14;-17406.94;;;9.95;100.00
15193;BME280;7697;51.630;7.484;2024-02-21T05:52:16;-17407.78;;;9.97;100.00
15193;BME280;7697;51.630;7.484;2024-02-21T05:57:19;-17408.28;;;9.99;100.00
15193;BME280;7697;51.630;7.484;2024-02-21T06:02:21;-17407.94;;;9.98;100.00
15193;BME280;7697;51.630;7.484;2024-02-21T06:07:22;-17408.63;;;10.00;100.00
15193;BME280;7697;51.630;7.484;2024-02-21T06:12:25;-17408.47;;;9.99;100.00
15193;BME280;7697;51.630;7.484;2024-02-21T06:17:27;-17409.13;;;10.01;100.00
15193;BME280;7697;51.630;7.484;2024-02-21T06:22:30;-17410.13;;;10.04;99.88
15193;BME280;7697;51.630;7.484;2024-02-21T06:27:33;-17410.13;;;10.04;99.56
15193;BME280;7697;51.630;7.484;2024-02-21T06:32:35;-17410.81;;;10.06;99.66
15193;BME280;7697;51.630;7.484;2024-02-21T06:37:36;-17409.13;;;10.01;99.91
15193;BME280;7697;51.630;7.484;2024-02-21T06:42:40;-17408.97;;;10.01;99.71
15193;BME280;7697;51.630;7.484;2024-02-21T06:47:42;-17410.63;;;10.06;99.98
15193;BME280;7697;51.630;7.484;2024-02-21T06:52:43;-17410.47;;;10.05;99.99
15193;BME280;7697;51.630;7.484;2024-02-21T06:57:47;-17411.31;;;10.08;99.66
15193;BME280;7697;51.630;7.484;2024-02-21T07:02:49;-17411.66;;;10.09;99.39
15193;BME280;7697;51.630;7.484;2024-02-21T07:07:51;-17412.31;;;10.11;99.50
15193;BME280;7697;51.630;7.484;2024-02-21T07:12:54;-17414.31;;;10.17;98.92
15193;BME280;7697;51.630;7.484;2024-02-21T07:17:56;-17414.50;;;10.18;99.55
15193;BME280;7697;51.630;7.484;2024-02-21T07:22:58;-17414.50;;;10.18;99.03
15193;BME280;7697;51.630;7.484;2024-02-21T07:28:01;-17414.66;;;10.18;98.50
15193;BME280;7697;51.630;7.484;2024-02-21T07:33:03;-17414.66;;;10.18;98.17
15193;BME280;7697;51.630;7.484;2024-02-21T07:38:07;-17416.19;;;10.23;98.22
15193;BME280;7697;51.630;7.484;2024-02-21T07:43:14;-17417.19;;;10.26;97.86
15193;BME280;7697;51.630;7.484;2024-02-21T07:48:15;-17419.03;;;10.31;97.86
15193;BME280;7697;51.630;7.484;2024-02-21T07:53:20;-17420.72;;;10.36;97.25
15193;BME280;7697;51.630;7.484;2024-02-21T07:58:23;-17421.03;;;10.37;96.59
15193;BME280;7697;51.630;7.484;2024-02-21T08:03:24;-17421.38;;;10.38;97.39
15193;BME280;7697;51.630;7.484;2024-02-21T08:08:26;-17423.41;;;10.44;97.04
15193;BME280;7697;51.630;7.484;2024-02-21T08:13:29;-17426.06;;;10.52;97.63
15193;BME280;7697;51.630;7.484;2024-02-21T08:18:31;-17426.91;;;10.55;96.89
15193;BME280;7697;51.630;7.484;2024-02-21T08:23:36;-17427.41;;;10.57;96.90
15193;BME280;7697;51.630;7.484;2024-02-21T08:28:39;-17429.09;;;10.62;96.17
15193;BME280;7697;51.630;7.484;2024-02-21T08:33:41;-17430.44;;;10.66;96.55
15193;BME280;7697;51.630;7.484;2024-02-21T08:38:42;-17431.94;;;10.70;96.32
15193;BME280;7697;51.630;7.484;2024-02-21T08:43:45;-17435.31;;;10.80;95.92
15193;BME280;7697;51.630;7.484;2024-02-21T08:48:47;-17437.31;;;10.86;96.02
15193;BME280;7697;51.630;7.484;2024-02-21T08:53:49;-17436.63;;;10.84;94.65
15193;BME280;7697;51.630;7.484;2024-02-21T08:58:53;-17437.81;;;10.88;94.59
15193;BME280;7697;51.630;7.484;2024-02-21T09:03:55;-17438.66;;;10.90;93.96
15193;BME280;7697;51.630;7.484;2024-02-21T09:08:57;-17441.34;;;10.99;93.83
15193;BME280;7697;51.630;7.484;2024-02-21T09:14:00;-17443.19;;;11.04;93.33
15193;BME280;7697;51.630;7.484;2024-02-21T09:19:04;-17443.84;;;11.06;92.01
15193;BME280;7697;51.630;7.484;2024-02-21T09:24:06;-17442.84;;;11.03;93.41
15193;BME280;7697;51.630;7.484;2024-02-21T09:29:09;-17441.19;;;10.98;93.32
15193;BME280;7697;51.630;7.484;2024-02-21T09:34:11;-17440.66;;;10.97;93.99
15193;BME280;7697;51.630;7.484;2024-02-21T09:39:12;-17440.84;;;10.97;94.67
15193;BME280;7697;51.630;7.484;2024-02-21T09:44:19;-17442.50;;;11.02;94.98
15193;BME280;7697;51.630;7.484;2024-02-21T09:49:29;-17443.19;;;11.04;95.30
15193;BME280;7697;51.630;7.484;2024-02-21T09:54:33;-17441.19;;;10.98;95.54
15193;BME280;7697;51.630;7.484;2024-02-21T09:59:37;-17438.81;;;10.91;95.84
15193;BME280;7697;51.630;7.484;2024-02-21T10:04:39;-17436.47;;;10.84;96.77
15193;BME280;7697;51.630;7.484;2024-02-21T10:09:41;-17432.63;;;10.72;96.31
15193;BME280;7697;51.630;7.484;2024-02-21T10:14:46;-17428.75;;;10.61;97.52
15193;BME280;7697;51.630;7.484;2024-02-21T10:19:48;-17429.09;;;10.62;97.70
15193;BME280;7697;51.630;7.484;2024-02-21T10:24:52;-17428.94;;;10.61;98.16
15193;BME280;7697;51.630;7.484;2024-02-21T10:29:56;-17429.44;;;10.63;98.39
15193;BME280;7697;51.630;7.484;2024-02-21T10:35:01;-17427.75;;;10.58;98.38
15193;BME280;7697;51.630;7.484;2024-02-21T10:40:06;-17428.09;;;10.59;98.85
15193;BME280;7697;51.630;7.484;2024-02-21T10:45:09;-17428.75;;;10.61;99.00
15193;BME280;7697;51.630;7.484;2024-02-21T10:50:12;-17431.44;;;10.69;98.61
15193;BME280;7697;51.630;7.484;2024-02-21T10:55:20;-17431.78;;;10.70;98.40
15193;BME280;7697;51.630;7.484;2024-02-21T11:00:26;-17432.78;;;10.73;98.67
15193;BME280;7697;51.630;7.484;2024-02-21T11:05:30;-17435.31;;;10.80;98.71
15193;BME280;7697;51.630;7.484;2024-02-21T11:10:36;-17440.16;;;10.95;97.47
15193;BME280;7697;51.630;7.484;2024-02-21T11:15:42;-17441.34;;;10.99;96.22
15193;BME280;7697;51.630;7.484;2024-02-21T11:20:49;-17443.69;;;11.06;96.06
15193;BME280;7697;51.630;7.484;2024-02-21T11:25:51;-17444.88;;;11.09;95.05
15193;BME280;7697;51.630;7.484;2024-02-21T11:31:06;-17445.53;;;11.11;93.42
15193;BME280;7697;51.630;7.484;2024-02-21T11:36:08;-17448.22;;;11.19;93.67
15193;BME280;7697;51.630;7.484;2024-02-21T11:41:10;-17454.25;;;11.38;93.23
15193;BME280;7697;51.630;7.484;2024-02-21T11:46:14;-17456.59;;;11.45;91.83
15193;BME280;7697;51.630;7.484;2024-02-21T11:51:24;-17455.59;;;11.42;91.23
15193;BME280;7697;51.630;7.484;2024-02-21T11:56:29;-17456.28;;;11.44;90.52
15193;BME280;7697;51.630;7.484;2024-02-21T12:01:36;-17455.59;;;11.42;91.28
15193;BME280;7697;51.630;7.484;2024-02-21T12:06:38;-17457.94;;;11.49;90.10
15193;BME280;7697;51.630;7.484;2024-02-21T12:11:40;-17456.94;;;11.46;90.57
15193;BME280;7697;51.630;7.484;2024-02-21T12:16:44;-17459.97;;;11.55;90.18
15193;BME280;7697;51.630;7.484;2024-02-21T12:21:48;-17464.66;;;11.69;89.54
15193;BME280;7697;51.630;7.484;2024-02-21T12:26:50;-17468.69;;;11.81;89.33
15193;BME280;7697;51.630;7.484;2024-02-21T12:31:55;-17472.72;;;11.93;88.44
15193;BME280;7697;51.630;7.484;2024-02-21T12:36:58;-17474.06;;;11.97;88.61
15193;BME280;7697;51.630;7.484;2024-02-21T12:42:00;-17476.41;;;12.05;87.67
15193;BME280;7697;51.630;7.484;2024-02-21T12:47:03;-17477.25;;;12.07;86.59
15193;BME280;7697;51.630;7.484;2024-02-21T12:52:05;-17477.09;;;12.07;85.93
15193;BME280;7697;51.630;7.484;2024-02-21T12:57:07;-17477.25;;;12.07;85.77
15193;BME280;7697;51.630;7.484;2024-02-21T13:02:10;-17480.94;;;12.18;85.70
15193;BME280;7697;51.630;7.484;2024-02-21T13:07:12;-17483.13;;;12.25;85.93
15193;BME280;7697;51.630;7.484;2024-02-21T13:12:14;-17487.66;;;12.38;85.83
15193;BME280;7697;51.630;7.484;2024-02-21T13:17:17;-17489.00;;;12.43;83.88
15193;BME280;7697;51.630;7.484;2024-02-21T13:22:19;-17488.16;;;12.40;83.89
15193;BME280;7697;51.630;7.484;2024-02-21T13:27:22;-17490.34;;;12.47;82.93
15193;BME280;7697;51.630;7.484;2024-02-21T13:32:25;-17491.69;;;12.51;82.77
15193;BME280;7697;51.630;7.484;2024-02-21T13:37:27;-17493.84;;;12.57;83.10
15193;BME280;7697;51.630;7.484;2024-02-21T13:42:29;-17498.38;;;12.71;82.57
15193;BME280;7697;51.630;7.484;2024-02-21T13:47:33;-17499.22;;;12.73;81.96
15193;BME280;7697;51.630;7.484;2024-02-21T13:52:36;-17497.56;;;12.68;81.46
15193;BME280;7697;51.630;7.484;2024-02-21T13:57:38;-17501.75;;;12.81;82.16
15193;BME280;7697;51.630;7.484;2024-02-21T14:02:41;-17501.56;;;12.81;82.10
15193;BME280;7697;51.630;7.484;2024-02-21T14:07:43;-17505.25;;;12.92;81.85
15193;BME280;7697;51.630;7.484;2024-02-21T14:12:45;-17504.94;;;12.91;80.75
15193;BME280;7697;51.630;7.484;2024-02-21T14:17:49;-17503.09;;;12.85;81.50
15193;BME280;7697;51.630;7.484;2024-02-21T14:22:51;-17501.75;;;12.81;81.19
15193;BME280;7697;51.630;7.484;2024-02-21T14:27:53;-17500.91;;;12.78;81.08
15193;BME280;7697;51.630;7.484;2024-02-21T14:32:56;-17500.41;;;12.77;79.90
15193;BME280;7697;51.630;7.484;2024-02-21T14:37:58;-17501.41;;;12.80;81.03
15193;BME280;7697;51.630;7.484;2024-02-21T14:43:01;-17502.06;;;12.82;80.63
15193;BME280;7697;51.630;7.484;2024-02-21T14:48:05;-17504.44;;;12.89;80.60
15193;BME280;7697;51.630;7.484;2024-02-21T14:53:07;-17502.91;;;12.85;80.48
15193;BME280;7697;51.630;7.484;2024-02-21T14:58:09;-17502.75;;;12.84;80.08
15193;BME280;7697;51.630;7.484;2024-02-21T15:03:12;-17502.75;;;12.84;79.97
15193;BME280;7697;51.630;7.484;2024-02-21T15:08:15;-17503.25;;;12.86;78.34
15193;BME280;7697;51.630;7.484;2024-02-21T15:13:20;-17499.91;;;12.75;78.94
15193;BME280;7697;51.630;7.484;2024-02-21T15:18:24;-17497.03;;;12.67;78.95
15193;BME280;7697;51.630;7.484;2024-02-21T15:23:25;-17495.53;;;12.62;78.07
15193;BME280;7697;51.630;7.484;2024-02-21T15:28:27;-17492.50;;;12.53;79.28
15193;BME280;7697;51.630;7.484;2024-02-21T15:33:31;-17492.50;;;12.53;79.72
15193;BME280;7697;51.630;7.484;2024-02-21T15:38:33;-17490.84;;;12.48;79.63
15193;BME280;7697;51.630;7.484;2024-02-21T15:43:35;-17488.50;;;12.41;79.13
15193;BME280;7697;51.630;7.484;2024-02-21T15:48:39;-17486.31;;;12.34;79.79
15193;BME280;7697;51.630;7.484;2024-02-21T15:53:41;-17487.16;;;12.37;80.26
15193;BME280;7697;51.630;7.484;2024-02-21T15:58:45;-17484.97;;;12.30;80.11
15193;BME280;7697;51.630;7.484;2024-02-21T16:03:49;-17485.13;;;12.31;79.77
15193;BME280;7697;51.630;7.484;2024-02-21T16:08:50;-17483.97;;;12.27;80.30
15193;BME280;7697;51.630;7.484;2024-02-21T16:13:52;-17482.28;;;12.22;79.94
15193;BME280;7697;51.630;7.484;2024-02-21T16:18:56;-17481.09;;;12.19;79.59
15193;BME280;7697;51.630;7.484;2024-02-21T16:23:58;-17481.44;;;12.20;79.05
15193;BME280;7697;51.630;7.484;2024-02-21T16:29:00;-17480.28;;;12.16;78.74
15193;BME280;7697;51.630;7.484;2024-02-21T16:34:03;-17479.09;;;12.13;79.06
15193;BME280;7697;51.630;7.484;2024-02-21T16:39:05;-17476.41;;;12.05;78.98
15193;BME280;7697;51.630;7.484;2024-02-21T16:44:07;-17477.75;;;12.09;78.15
15193;BME280;7697;51.630;7.484;2024-02-21T16:49:10;-17475.91;;;12.03;77.55
15193;BME280;7697;51.630;7.484;2024-02-21T16:54:13;-17476.06;;;12.03;78.52
15193;BME280;7697;51.630;7.484;2024-02-21T16:59:14;-17475.56;;;12.02;79.11
15193;BME280;7697;51.630;7.484;2024-02-21T17:04:18;-17473.72;;;11.96;78.88
15193;BME280;7697;51.630;7.484;2024-02-21T17:09:19;-17472.72;;;11.93;78.40
15193;BME280;7697;51.630;7.484;2024-02-21T17:14:21;-17470.53;;;11.87;78.43
15193;BME280;7697;51.630;7.484;2024-02-21T17:19:26;-17467.00;;;11.76;80.09
15193;BME280;7697;51.630;7.484;2024-02-21T17:24:28;-17462.16;;;11.61;81.24
15193;BME280;7697;51.630;7.484;2024-02-21T17:29:29;-17457.94;;;11.49;82.93
15193;BME280;7697;51.630;7.484;2024-02-21T17:34:33;-17455.25;;;11.41;84.11
15193;BME280;7697;51.630;7.484;2024-02-21T17:39:35;-17452.25;;;11.32;84.65
15193;BME280;7697;51.630;7.484;2024-02-21T17:44:36;-17453.09;;;11.34;84.74
15193;BME280;7697;51.630;7.484;2024-02-21T17:49:42;-17448.22;;;11.19;85.20
15193;BME280;7697;51.630;7.484;2024-02-21T17:54:44;-17445.19;;;11.10;85.99
15193;BME280;7697;51.630;7.484;2024-02-21T17:59:47;-17444.38;;;11.08;87.13
15193;BME280;7697;51.630;7.484;2024-02-21T18:04:50;-17441.19;;;10.98;87.55
15193;BME280;7697;51.630;7.484;2024-02-21T18:09:52;-17437.81;;;10.88;88.14
15193;BME280;7697;51.630;7.484;2024-02-21T18:14:55;-17434.81;;;10.79;89.22
15193;BME280;7697;51.630;7.484;2024-02-21T18:19:58;-17433.44;;;10.75;88.86
15193;BME280;7697;51.630;7.484;2024-02-21T18:25:03;-17433.78;;;10.76;88.47
15193;BME280;7697;51.630;7.484;2024-02-21T18:30:10;-17431.09;;;10.68;88.49
15193;BME280;7697;51.630;7.484;2024-02-21T18:35:15;-17429.44;;;10.63;88.90
15193;BME280;7697;51.630;7.484;2024-02-21T18:40:21;-17428.09;;;10.59;88.59
15193;BME280;7697;51.630;7.484;2024-02-21T18:45:27;-17424.91;;;10.49;88.93
15193;BME280;7697;51.630;7.484;2024-02-21T18:50:31;-17424.72;;;10.48;89.77
15193;BME280;7697;51.630;7.484;2024-02-21T18:55:34;-17435.47;;;10.81;88.73
15193;BME280;7697;51.630;7.484;2024-02-21T19:00:37;-17422.38;;;10.41;90.62
15193;BME280;7697;51.630;7.484;2024-02-21T19:05:42;-17419.38;;;10.32;91.35
15193;BME280;7697;51.630;7.484;2024-02-21T19:10:48;-17418.34;;;10.29;91.57
15193;BME280;7697;51.630;7.484;2024-02-21T19:15:51;-17416.00;;;10.22;92.02
15193;BME280;7697;51.630;7.484;2024-02-21T19:20:58;-17414.16;;;10.16;92.99
15193;BME280;7697;51.630;7.484;2024-02-21T19:26:03;-17412.97;;;10.13;92.69
15193;BME280;7697;51.630;7.484;2024-02-21T19:31:06;-17412.31;;;10.11;92.93
15193;BME280;7697;51.630;7.484;2024-02-21T19:36:17;-17412.81;;;10.12;93.42
15193;BME280;7697;51.630;7.484;2024-02-21T19:41:22;-17411.66;;;10.09;94.45
15193;BME280;7697;51.630;7.484;2024-02-21T19:46:28;-17409.97;;;10.04;94.60
15193;BME280;7697;51.630;7.484;2024-02-21T19:51:47;-17410.47;;;10.05;95.00
15193;BME280;7697;51.630;7.484;2024-02-21T19:56:52;-17410.47;;;10.05;95.26
15193;BME280;7697;51.630;7.484;2024-02-21T20:01:56;-17409.97;;;10.04;94.97
15193;BME280;7697;51.630;7.484;2024-02-21T20:07:01;-17410.81;;;10.06;95.45
15193;BME280;7697;51.630;7.484;2024-02-21T20:12:06;-17409.47;;;10.02;95.43
15193;BME280;7697;51.630;7.484;2024-02-21T20:17:08;-17410.63;;;10.06;95.69
15193;BME280;7697;51.630;7.484;2024-02-21T20:22:12;-17409.97;;;10.04;95.83
15193;BME280;7697;51.630;7.484;2024-02-21T20:27:15;-17410.81;;;10.06;96.32
15193;BME280;7697;51.630;7.484;2024-02-21T20:32:17;-17409.97;;;10.04;96.45
15193;BME280;7697;51.630;7.484;2024-02-21T20:37:21;-17411.31;;;10.08;96.85
15193;BME280;7697;51.630;7.484;2024-02-21T20:42:24;-17410.63;;;10.06;97.48
15193;BME280;7697;51.630;7.484;2024-02-21T20:47:35;-17409.97;;;10.04;98.41
15193;BME280;7697;51.630;7.484;2024-02-21T20:52:49;-17407.94;;;9.98;99.85
15193;BME280;7697;51.630;7.484;2024-02-21T20:57:53;-17405.78;;;9.91;100.00
15193;BME280;7697;51.630;7.484;2024-02-21T21:02:57;-17405.09;;;9.89;100.00
15193;BME280;7697;51.630;7.484;2024-02-21T21:08:03;-17406.28;;;9.93;100.00
15193;BME280;7697;51.630;7.484;2024-02-21T21:13:08;-17405.09;;;9.89;100.00
15193;BME280;7697;51.630;7.484;2024-02-21T21:18:12;-17405.59;;;9.91;100.00
15193;BME280;7697;51.630;7.484;2024-02-21T21:23:17;-17406.78;;;9.94;100.00
15193;BME280;7697;51.630;7.484;2024-02-21T21:28:20;-17406.94;;;9.95;100.00
15193;BME280;7697;51.630;7.484;2024-02-21T21:33:23;-17407.63;;;9.97;100.00
15193;BME280;7697;51.630;7.484;2024-02-21T21:38:29;-17406.44;;;9.93;100.00
15193;BME280;7697;51.630;7.484;2024-02-21T21:43:35;-17406.59;;;9.94;100.00
15193;BME280;7697;51.630;7.484;2024-02-21T21:48:42;-17406.94;;;9.95;100.00
15193;BME280;7697;51.630;7.484;2024-02-21T21:54:10;-17408.13;;;9.98;100.00
15193;BME280;7697;51.630;7.484;2024-02-21T21:59:16;-17406.94;;;9.95;100.00
15193;BME280;7697;51.630;7.484;2024-02-21T23:07:37;-17396.53;;;9.63;100.00
15193;BME280;7697;51.630;7.484;2024-02-21T23:18:53;-17396.22;;;9.62;100.00
15193;BME280;7697;51.630;7.484;2024-02-21T23:47:31;-17397.06;;;9.65;100.00
15193;BME280;7697;51.630;7.484;2024-02-21T23:52:40;-17397.88;;;9.67;100.00
15193;BME280;7697;51.630;7.484;2024-02-21T23:57:46;-17398.72;;;9.70;100.00
